sensor_id;sensor_type;location;lat;lon;timestamp;P1;durP1;ratioP1;P2;durP2;ratioP2
75386;SDS011;63966;47.914;22.266;2024-03-25T00:02:48;6.45;;;2.47;;
75386;SDS011;63966;47.914;22.266;2024-03-25T00:05:51;8.95;;;2.50;;
75386;SDS011;63966;47.914;22.266;2024-03-25T00:08:53;5.37;;;2.47;;
75386;SDS011;63966;47.914;22.266;2024-03-25T00:11:55;7.30;;;2.63;;
75386;SDS011;63966;47.914;22.266;2024-03-25T00:14:58;5.32;;;2.10;;
75386;SDS011;63966;47.914;22.266;2024-03-25T00:18:02;5.40;;;2.10;;
75386;SDS011;63966;47.914;22.266;2024-03-25T00:21:05;5.38;;;2.10;;
75386;SDS011;63966;47.914;22.266;2024-03-25T00:24:07;7.50;;;1.93;;
75386;SDS011;63966;47.914;22.266;2024-03-25T00:27:09;4.55;;;1.70;;
75386;SDS011;63966;47.914;22.266;2024-03-25T00:30:12;7.03;;;2.15;;
75386;SDS011;63966;47.914;22.266;2024-03-25T00:33:14;5.88;;;2.30;;
75386;SDS011;63966;47.914;22.266;2024-03-25T00:36:18;6.65;;;2.28;;
75386;SDS011;63966;47.914;22.266;2024-03-25T00:39:20;7.33;;;2.57;;
75386;SDS011;63966;47.914;22.266;2024-03-25T00:42:26;6.05;;;2.58;;
75386;SDS011;63966;47.914;22.266;2024-03-25T00:45:29;5.80;;;3.22;;
75386;SDS011;63966;47.914;22.266;2024-03-25T00:48:34;8.40;;;2.60;;
75386;SDS011;63966;47.914;22.266;2024-03-25T00:51:36;7.20;;;2.92;;
75386;SDS011;63966;47.914;22.266;2024-03-25T00:54:39;5.20;;;2.43;;
75386;SDS011;63966;47.914;22.266;2024-03-25T00:57:41;6.20;;;2.50;;
75386;SDS011;63966;47.914;22.266;2024-03-25T01:00:44;8.57;;;3.45;;
75386;SDS011;63966;47.914;22.266;2024-03-25T01:03:47;7.00;;;2.78;;
75386;SDS011;63966;47.914;22.266;2024-03-25T01:06:49;10.52;;;2.53;;
75386;SDS011;63966;47.914;22.266;2024-03-25T01:09:52;5.43;;;2.43;;
75386;SDS011;63966;47.914;22.266;2024-03-25T01:12:54;7.05;;;2.42;;
75386;SDS011;63966;47.914;22.266;2024-03-25T01:15:58;6.30;;;2.67;;
75386;SDS011;63966;47.914;22.266;2024-03-25T01:19:00;6.35;;;3.53;;
75386;SDS011;63966;47.914;22.266;2024-03-25T01:22:03;8.57;;;4.30;;
75386;SDS011;63966;47.914;22.266;2024-03-25T01:25:06;7.63;;;3.97;;
75386;SDS011;63966;47.914;22.266;2024-03-25T01:28:09;8.50;;;4.35;;
75386;SDS011;63966;47.914;22.266;2024-03-25T01:31:11;8.13;;;4.35;;
75386;SDS011;63966;47.914;22.266;2024-03-25T01:34:14;8.00;;;3.08;;
75386;SDS011;63966;47.914;22.266;2024-03-25T01:37:16;6.68;;;2.55;;
75386;SDS011;63966;47.914;22.266;2024-03-25T01:40:19;8.57;;;2.40;;
75386;SDS011;63966;47.914;22.266;2024-03-25T01:43:21;5.25;;;1.92;;
75386;SDS011;63966;47.914;22.266;2024-03-25T01:46:23;7.25;;;2.05;;
75386;SDS011;63966;47.914;22.266;2024-03-25T01:49:26;6.10;;;2.05;;
75386;SDS011;63966;47.914;22.266;2024-03-25T01:52:28;4.68;;;1.80;;
75386;SDS011;63966;47.914;22.266;2024-03-25T01:55:32;4.90;;;2.10;;
75386;SDS011;63966;47.914;22.266;2024-03-25T01:58:36;5.57;;;2.00;;
75386;SDS011;63966;47.914;22.266;2024-03-25T02:01:38;6.18;;;2.15;;
75386;SDS011;63966;47.914;22.266;2024-03-25T02:04:42;8.07;;;2.88;;
75386;SDS011;63966;47.914;22.266;2024-03-25T02:07:45;4.65;;;2.28;;
75386;SDS011;63966;47.914;22.266;2024-03-25T02:10:50;4.80;;;2.23;;
75386;SDS011;63966;47.914;22.266;2024-03-25T02:13:54;6.70;;;2.72;;
75386;SDS011;63966;47.914;22.266;2024-03-25T02:16:57;6.70;;;2.42;;
75386;SDS011;63966;47.914;22.266;2024-03-25T02:19:59;7.00;;;2.58;;
75386;SDS011;63966;47.914;22.266;2024-03-25T02:23:04;8.00;;;2.70;;
75386;SDS011;63966;47.914;22.266;2024-03-25T02:26:06;6.80;;;2.67;;
75386;SDS011;63966;47.914;22.266;2024-03-25T02:29:09;5.68;;;2.50;;
75386;SDS011;63966;47.914;22.266;2024-03-25T02:32:11;6.32;;;2.78;;
75386;SDS011;63966;47.914;22.266;2024-03-25T02:35:15;8.25;;;2.80;;
75386;SDS011;63966;47.914;22.266;2024-03-25T02:38:18;6.25;;;2.30;;
75386;SDS011;63966;47.914;22.266;2024-03-25T02:41:21;7.40;;;2.40;;
75386;SDS011;63966;47.914;22.266;2024-03-25T02:44:25;7.13;;;2.60;;
75386;SDS011;63966;47.914;22.266;2024-03-25T02:47:28;4.70;;;2.08;;
75386;SDS011;63966;47.914;22.266;2024-03-25T02:50:31;5.50;;;2.35;;
75386;SDS011;63966;47.914;22.266;2024-03-25T02:53:33;6.57;;;2.00;;
75386;SDS011;63966;47.914;22.266;2024-03-25T02:56:36;3.77;;;1.83;;
75386;SDS011;63966;47.914;22.266;2024-03-25T02:59:38;5.85;;;2.38;;
75386;SDS011;63966;47.914;22.266;2024-03-25T03:02:40;6.72;;;2.63;;
75386;SDS011;63966;47.914;22.266;2024-03-25T03:05:43;5.45;;;2.10;;
75386;SDS011;63966;47.914;22.266;2024-03-25T03:08:45;5.57;;;2.47;;
75386;SDS011;63966;47.914;22.266;2024-03-25T03:11:48;5.93;;;2.40;;
75386;SDS011;63966;47.914;22.266;2024-03-25T03:14:50;7.55;;;2.80;;
75386;SDS011;63966;47.914;22.266;2024-03-25T03:17:52;6.28;;;2.85;;
75386;SDS011;63966;47.914;22.266;2024-03-25T03:20:55;7.32;;;2.50;;
75386;SDS011;63966;47.914;22.266;2024-03-25T03:23:58;8.15;;;3.20;;
75386;SDS011;63966;47.914;22.266;2024-03-25T03:27:00;11.07;;;3.40;;
75386;SDS011;63966;47.914;22.266;2024-03-25T03:30:03;9.82;;;4.15;;
75386;SDS011;63966;47.914;22.266;2024-03-25T03:33:05;11.07;;;4.85;;
75386;SDS011;63966;47.914;22.266;2024-03-25T03:36:08;11.75;;;4.68;;
75386;SDS011;63966;47.914;22.266;2024-03-25T03:39:12;8.68;;;3.75;;
75386;SDS011;63966;47.914;22.266;2024-03-25T03:42:14;8.95;;;3.40;;
75386;SDS011;63966;47.914;22.266;2024-03-25T03:45:17;6.30;;;2.88;;
75386;SDS011;63966;47.914;22.266;2024-03-25T03:48:19;8.57;;;3.15;;
75386;SDS011;63966;47.914;22.266;2024-03-25T03:51:22;7.40;;;2.90;;
75386;SDS011;63966;47.914;22.266;2024-03-25T03:54:24;14.03;;;5.73;;
75386;SDS011;63966;47.914;22.266;2024-03-25T03:57:26;17.90;;;10.98;;
75386;SDS011;63966;47.914;22.266;2024-03-25T04:00:29;14.63;;;8.60;;
75386;SDS011;63966;47.914;22.266;2024-03-25T04:03:34;15.68;;;8.38;;
75386;SDS011;63966;47.914;22.266;2024-03-25T04:06:37;12.53;;;7.00;;
75386;SDS011;63966;47.914;22.266;2024-03-25T04:09:41;15.07;;;7.30;;
75386;SDS011;63966;47.914;22.266;2024-03-25T04:12:43;11.25;;;5.13;;
75386;SDS011;63966;47.914;22.266;2024-03-25T04:15:46;8.88;;;4.93;;
75386;SDS011;63966;47.914;22.266;2024-03-25T04:18:48;9.77;;;4.90;;
75386;SDS011;63966;47.914;22.266;2024-03-25T04:21:50;10.10;;;5.60;;
75386;SDS011;63966;47.914;22.266;2024-03-25T04:24:54;9.98;;;4.85;;
75386;SDS011;63966;47.914;22.266;2024-03-25T04:27:56;8.60;;;4.25;;
75386;SDS011;63966;47.914;22.266;2024-03-25T04:30:59;7.28;;;4.10;;
75386;SDS011;63966;47.914;22.266;2024-03-25T04:34:01;9.67;;;4.10;;
75386;SDS011;63966;47.914;22.266;2024-03-25T04:37:04;9.85;;;3.83;;
75386;SDS011;63966;47.914;22.266;2024-03-25T04:40:06;6.55;;;2.78;;
75386;SDS011;63966;47.914;22.266;2024-03-25T04:43:09;5.65;;;2.38;;
75386;SDS011;63966;47.914;22.266;2024-03-25T04:46:12;5.87;;;2.47;;
75386;SDS011;63966;47.914;22.266;2024-03-25T04:49:14;6.35;;;3.05;;
75386;SDS011;63966;47.914;22.266;2024-03-25T04:52:16;5.88;;;3.03;;
75386;SDS011;63966;47.914;22.266;2024-03-25T04:55:19;6.35;;;3.38;;
75386;SDS011;63966;47.914;22.266;2024-03-25T04:58:22;5.53;;;2.58;;
75386;SDS011;63966;47.914;22.266;2024-03-25T05:01:24;7.37;;;3.53;;
75386;SDS011;63966;47.914;22.266;2024-03-25T05:04:27;10.13;;;4.03;;
75386;SDS011;63966;47.914;22.266;2024-03-25T05:07:29;10.02;;;4.78;;
75386;SDS011;63966;47.914;22.266;2024-03-25T05:10:32;13.88;;;4.43;;
75386;SDS011;63966;47.914;22.266;2024-03-25T05:13:34;7.72;;;3.15;;
75386;SDS011;63966;47.914;22.266;2024-03-25T05:16:37;8.20;;;3.40;;
75386;SDS011;63966;47.914;22.266;2024-03-25T05:19:39;7.03;;;2.90;;
75386;SDS011;63966;47.914;22.266;2024-03-25T05:22:41;6.53;;;2.70;;
75386;SDS011;63966;47.914;22.266;2024-03-25T05:25:44;5.88;;;2.67;;
75386;SDS011;63966;47.914;22.266;2024-03-25T05:28:46;9.43;;;3.67;;
75386;SDS011;63966;47.914;22.266;2024-03-25T05:31:57;9.43;;;4.07;;
75386;SDS011;63966;47.914;22.266;2024-03-25T05:35:00;8.13;;;4.00;;
75386;SDS011;63966;47.914;22.266;2024-03-25T05:38:04;8.95;;;4.28;;
75386;SDS011;63966;47.914;22.266;2024-03-25T05:41:06;8.70;;;4.07;;
75386;SDS011;63966;47.914;22.266;2024-03-25T05:44:09;8.60;;;3.85;;
75386;SDS011;63966;47.914;22.266;2024-03-25T05:47:11;9.03;;;3.93;;
75386;SDS011;63966;47.914;22.266;2024-03-25T05:50:15;10.67;;;4.30;;
75386;SDS011;63966;47.914;22.266;2024-03-25T05:53:18;9.15;;;4.03;;
75386;SDS011;63966;47.914;22.266;2024-03-25T05:56:20;8.05;;;3.75;;
75386;SDS011;63966;47.914;22.266;2024-03-25T05:59:22;11.38;;;3.95;;
75386;SDS011;63966;47.914;22.266;2024-03-25T06:02:25;8.63;;;3.67;;
75386;SDS011;63966;47.914;22.266;2024-03-25T06:05:27;7.37;;;4.00;;
75386;SDS011;63966;47.914;22.266;2024-03-25T06:08:30;8.63;;;3.83;;
75386;SDS011;63966;47.914;22.266;2024-03-25T06:11:33;10.00;;;4.03;;
75386;SDS011;63966;47.914;22.266;2024-03-25T06:14:35;7.40;;;3.20;;
75386;SDS011;63966;47.914;22.266;2024-03-25T06:17:39;7.57;;;3.47;;
75386;SDS011;63966;47.914;22.266;2024-03-25T06:20:41;9.13;;;3.53;;
75386;SDS011;63966;47.914;22.266;2024-03-25T06:23:43;6.65;;;3.65;;
75386;SDS011;63966;47.914;22.266;2024-03-25T06:26:46;6.60;;;3.13;;
75386;SDS011;63966;47.914;22.266;2024-03-25T06:29:48;7.72;;;2.88;;
75386;SDS011;63966;47.914;22.266;2024-03-25T06:33:11;5.00;;;2.73;;
75386;SDS011;63966;47.914;22.266;2024-03-25T06:36:32;6.73;;;3.10;;
75386;SDS011;63966;47.914;22.266;2024-03-25T06:39:36;6.72;;;2.97;;
75386;SDS011;63966;47.914;22.266;2024-03-25T06:42:38;5.15;;;2.70;;
75386;SDS011;63966;47.914;22.266;2024-03-25T06:45:41;5.95;;;3.15;;
75386;SDS011;63966;47.914;22.266;2024-03-25T06:48:43;6.47;;;3.10;;
75386;SDS011;63966;47.914;22.266;2024-03-25T06:51:46;7.97;;;3.40;;
75386;SDS011;63966;47.914;22.266;2024-03-25T06:54:48;6.88;;;3.00;;
75386;SDS011;63966;47.914;22.266;2024-03-25T06:57:51;6.80;;;3.25;;
75386;SDS011;63966;47.914;22.266;2024-03-25T07:00:55;6.90;;;2.78;;
75386;SDS011;63966;47.914;22.266;2024-03-25T07:03:58;8.27;;;3.33;;
75386;SDS011;63966;47.914;22.266;2024-03-25T07:07:00;8.20;;;4.60;;
75386;SDS011;63966;47.914;22.266;2024-03-25T07:10:03;5.32;;;3.03;;
75386;SDS011;63966;47.914;22.266;2024-03-25T07:13:06;5.05;;;2.85;;
75386;SDS011;63966;47.914;22.266;2024-03-25T07:16:08;7.72;;;3.25;;
75386;SDS011;63966;47.914;22.266;2024-03-25T07:19:11;6.10;;;2.73;;
75386;SDS011;63966;47.914;22.266;2024-03-25T07:22:14;7.67;;;3.00;;
75386;SDS011;63966;47.914;22.266;2024-03-25T07:25:16;5.47;;;3.03;;
75386;SDS011;63966;47.914;22.266;2024-03-25T07:28:38;5.65;;;3.22;;
75386;SDS011;63966;47.914;22.266;2024-03-25T07:31:41;6.22;;;2.90;;
75386;SDS011;63966;47.914;22.266;2024-03-25T07:35:04;6.83;;;3.43;;
75386;SDS011;63966;47.914;22.266;2024-03-25T07:38:08;6.87;;;2.93;;
75386;SDS011;63966;47.914;22.266;2024-03-25T07:41:11;6.78;;;2.95;;
75386;SDS011;63966;47.914;22.266;2024-03-25T07:44:13;6.93;;;3.05;;
75386;SDS011;63966;47.914;22.266;2024-03-25T07:47:17;5.28;;;2.78;;
75386;SDS011;63966;47.914;22.266;2024-03-25T07:50:20;5.80;;;3.30;;
75386;SDS011;63966;47.914;22.266;2024-03-25T07:53:22;7.13;;;3.20;;
75386;SDS011;63966;47.914;22.266;2024-03-25T07:56:25;6.88;;;3.35;;
75386;SDS011;63966;47.914;22.266;2024-03-25T07:59:27;5.43;;;2.90;;
75386;SDS011;63966;47.914;22.266;2024-03-25T08:02:31;6.72;;;3.45;;
75386;SDS011;63966;47.914;22.266;2024-03-25T08:05:33;5.27;;;2.73;;
75386;SDS011;63966;47.914;22.266;2024-03-25T08:08:35;6.47;;;3.13;;
75386;SDS011;63966;47.914;22.266;2024-03-25T08:11:38;7.10;;;2.90;;
75386;SDS011;63966;47.914;22.266;2024-03-25T08:14:40;5.63;;;2.80;;
75386;SDS011;63966;47.914;22.266;2024-03-25T08:17:44;6.47;;;3.10;;
75386;SDS011;63966;47.914;22.266;2024-03-25T08:20:47;6.50;;;3.03;;
75386;SDS011;63966;47.914;22.266;2024-03-25T08:23:49;7.00;;;3.27;;
75386;SDS011;63966;47.914;22.266;2024-03-25T08:26:52;5.30;;;3.13;;
75386;SDS011;63966;47.914;22.266;2024-03-25T08:29:55;9.10;;;3.17;;
75386;SDS011;63966;47.914;22.266;2024-03-25T08:32:57;6.35;;;2.72;;
75386;SDS011;63966;47.914;22.266;2024-03-25T08:36:01;5.67;;;2.63;;
75386;SDS011;63966;47.914;22.266;2024-03-25T08:39:04;5.93;;;2.77;;
75386;SDS011;63966;47.914;22.266;2024-03-25T08:42:07;6.22;;;2.67;;
75386;SDS011;63966;47.914;22.266;2024-03-25T08:45:09;5.65;;;2.67;;
75386;SDS011;63966;47.914;22.266;2024-03-25T08:48:14;7.07;;;3.10;;
75386;SDS011;63966;47.914;22.266;2024-03-25T08:51:16;6.30;;;2.90;;
75386;SDS011;63966;47.914;22.266;2024-03-25T08:54:19;6.13;;;3.00;;
75386;SDS011;63966;47.914;22.266;2024-03-25T08:57:22;6.32;;;2.63;;
75386;SDS011;63966;47.914;22.266;2024-03-25T09:00:25;5.40;;;2.75;;
75386;SDS011;63966;47.914;22.266;2024-03-25T09:03:28;4.97;;;2.50;;
75386;SDS011;63966;47.914;22.266;2024-03-25T09:06:31;5.50;;;2.63;;
75386;SDS011;63966;47.914;22.266;2024-03-25T09:09:33;4.03;;;1.90;;
75386;SDS011;63966;47.914;22.266;2024-03-25T09:12:54;6.18;;;2.20;;
75386;SDS011;63966;47.914;22.266;2024-03-25T09:15:57;7.78;;;3.00;;
75386;SDS011;63966;47.914;22.266;2024-03-25T09:19:02;5.43;;;2.17;;
75386;SDS011;63966;47.914;22.266;2024-03-25T09:22:06;5.50;;;2.67;;
75386;SDS011;63966;47.914;22.266;2024-03-25T09:25:08;4.70;;;2.30;;
75386;SDS011;63966;47.914;22.266;2024-03-25T09:28:12;5.45;;;2.30;;
75386;SDS011;63966;47.914;22.266;2024-03-25T09:31:15;7.00;;;2.58;;
75386;SDS011;63966;47.914;22.266;2024-03-25T09:34:17;6.05;;;2.40;;
75386;SDS011;63966;47.914;22.266;2024-03-25T09:37:20;5.43;;;2.37;;
75386;SDS011;63966;47.914;22.266;2024-03-25T09:40:50;5.37;;;2.40;;
75386;SDS011;63966;47.914;22.266;2024-03-25T09:43:57;8.75;;;2.05;;
75386;SDS011;63966;47.914;22.266;2024-03-25T09:47:02;8.13;;;2.10;;
75386;SDS011;63966;47.914;22.266;2024-03-25T09:50:06;4.90;;;1.98;;
75386;SDS011;63966;47.914;22.266;2024-03-25T09:53:09;5.40;;;2.20;;
75386;SDS011;63966;47.914;22.266;2024-03-25T09:56:12;4.57;;;2.00;;
75386;SDS011;63966;47.914;22.266;2024-03-25T09:59:18;5.20;;;1.77;;
75386;SDS011;63966;47.914;22.266;2024-03-25T10:02:22;5.65;;;2.00;;
75386;SDS011;63966;47.914;22.266;2024-03-25T10:05:27;3.75;;;1.92;;
75386;SDS011;63966;47.914;22.266;2024-03-25T10:08:30;5.00;;;2.20;;
75386;SDS011;63966;47.914;22.266;2024-03-25T10:11:32;5.20;;;2.00;;
75386;SDS011;63966;47.914;22.266;2024-03-25T10:14:36;4.78;;;1.88;;
75386;SDS011;63966;47.914;22.266;2024-03-25T10:17:43;4.50;;;2.00;;
75386;SDS011;63966;47.914;22.266;2024-03-25T10:20:52;4.72;;;2.00;;
75386;SDS011;63966;47.914;22.266;2024-03-25T10:23:58;5.60;;;2.33;;
75386;SDS011;63966;47.914;22.266;2024-03-25T10:27:00;5.80;;;2.40;;
75386;SDS011;63966;47.914;22.266;2024-03-25T10:30:03;7.53;;;2.60;;
75386;SDS011;63966;47.914;22.266;2024-03-25T10:33:06;5.75;;;2.30;;
75386;SDS011;63966;47.914;22.266;2024-03-25T10:36:09;4.65;;;1.88;;
75386;SDS011;63966;47.914;22.266;2024-03-25T10:39:12;3.83;;;1.70;;
75386;SDS011;63966;47.914;22.266;2024-03-25T10:42:18;4.47;;;1.70;;
75386;SDS011;63966;47.914;22.266;2024-03-25T10:45:21;5.55;;;1.80;;
75386;SDS011;63966;47.914;22.266;2024-03-25T10:48:37;4.78;;;1.90;;
75386;SDS011;63966;47.914;22.266;2024-03-25T10:51:49;3.28;;;1.70;;
75386;SDS011;63966;47.914;22.266;2024-03-25T10:54:54;3.90;;;2.00;;
75386;SDS011;63966;47.914;22.266;2024-03-25T10:57:58;5.10;;;1.87;;
75386;SDS011;63966;47.914;22.266;2024-03-25T11:01:02;4.03;;;1.75;;
75386;SDS011;63966;47.914;22.266;2024-03-25T11:04:27;4.53;;;1.73;;
75386;SDS011;63966;47.914;22.266;2024-03-25T11:07:33;3.50;;;1.23;;
75386;SDS011;63966;47.914;22.266;2024-03-25T11:10:39;4.77;;;1.60;;
75386;SDS011;63966;47.914;22.266;2024-03-25T11:13:48;5.97;;;1.80;;
75386;SDS011;63966;47.914;22.266;2024-03-25T11:16:55;4.55;;;1.85;;
75386;SDS011;63966;47.914;22.266;2024-03-25T11:20:13;4.22;;;1.80;;
75386;SDS011;63966;47.914;22.266;2024-03-25T11:23:19;3.85;;;1.40;;
75386;SDS011;63966;47.914;22.266;2024-03-25T11:26:24;4.17;;;1.63;;
75386;SDS011;63966;47.914;22.266;2024-03-25T11:29:29;3.07;;;1.40;;
75386;SDS011;63966;47.914;22.266;2024-03-25T11:32:45;4.07;;;1.45;;
75386;SDS011;63966;47.914;22.266;2024-03-25T11:35:57;2.63;;;1.50;;
75386;SDS011;63966;47.914;22.266;2024-03-25T11:39:05;8.38;;;1.30;;
75386;SDS011;63966;47.914;22.266;2024-03-25T11:42:14;3.20;;;1.50;;
75386;SDS011;63966;47.914;22.266;2024-03-25T11:45:18;3.17;;;1.30;;
75386;SDS011;63966;47.914;22.266;2024-03-25T11:48:25;5.32;;;1.52;;
75386;SDS011;63966;47.914;22.266;2024-03-25T11:52:11;3.50;;;1.17;;
75386;SDS011;63966;47.914;22.266;2024-03-25T11:55:18;2.75;;;1.15;;
75386;SDS011;63966;47.914;22.266;2024-03-25T11:58:41;4.27;;;1.23;;
75386;SDS011;63966;47.914;22.266;2024-03-25T12:01:48;3.57;;;1.30;;
75386;SDS011;63966;47.914;22.266;2024-03-25T12:04:53;3.63;;;1.50;;
75386;SDS011;63966;47.914;22.266;2024-03-25T12:07:59;3.25;;;1.25;;
75386;SDS011;63966;47.914;22.266;2024-03-25T12:11:27;3.38;;;1.65;;
75386;SDS011;63966;47.914;22.266;2024-03-25T12:14:35;3.33;;;1.40;;
75386;SDS011;63966;47.914;22.266;2024-03-25T12:18:01;4.87;;;1.40;;
75386;SDS011;63966;47.914;22.266;2024-03-25T12:21:08;4.05;;;1.50;;
75386;SDS011;63966;47.914;22.266;2024-03-25T12:24:23;5.05;;;1.50;;
75386;SDS011;63966;47.914;22.266;2024-03-25T12:27:45;5.50;;;1.40;;
75386;SDS011;63966;47.914;22.266;2024-03-25T12:30:55;3.73;;;1.40;;
75386;SDS011;63966;47.914;22.266;2024-03-25T12:34:09;3.40;;;1.27;;
75386;SDS011;63966;47.914;22.266;2024-03-25T12:37:43;4.45;;;1.30;;
75386;SDS011;63966;47.914;22.266;2024-03-25T12:40:49;2.63;;;1.10;;
75386;SDS011;63966;47.914;22.266;2024-03-25T12:43:54;2.97;;;1.20;;
75386;SDS011;63966;47.914;22.266;2024-03-25T12:47:02;3.60;;;1.20;;
75386;SDS011;63966;47.914;22.266;2024-03-25T12:50:06;3.53;;;1.20;;
75386;SDS011;63966;47.914;22.266;2024-03-25T12:53:16;6.05;;;1.25;;
75386;SDS011;63966;47.914;22.266;2024-03-25T12:56:21;5.95;;;1.40;;
75386;SDS011;63966;47.914;22.266;2024-03-25T12:59:28;3.50;;;1.20;;
75386;SDS011;63966;47.914;22.266;2024-03-25T13:02:53;3.47;;;1.40;;
75386;SDS011;63966;47.914;22.266;2024-03-25T13:05:57;4.83;;;1.43;;
75386;SDS011;63966;47.914;22.266;2024-03-25T13:09:22;5.10;;;1.65;;
75386;SDS011;63966;47.914;22.266;2024-03-25T13:12:28;4.07;;;1.50;;
75386;SDS011;63966;47.914;22.266;2024-03-25T13:15:34;2.65;;;1.00;;
75386;SDS011;63966;47.914;22.266;2024-03-25T13:18:40;5.53;;;1.40;;
75386;SDS011;63966;47.914;22.266;2024-03-25T13:21:46;5.03;;;1.40;;
75386;SDS011;63966;47.914;22.266;2024-03-25T13:24:49;4.82;;;1.80;;
75386;SDS011;63966;47.914;22.266;2024-03-25T13:27:55;5.35;;;1.70;;
75386;SDS011;63966;47.914;22.266;2024-03-25T13:31:23;4.68;;;1.63;;
75386;SDS011;63966;47.914;22.266;2024-03-25T13:34:50;7.80;;;1.80;;
75386;SDS011;63966;47.914;22.266;2024-03-25T13:37:57;5.73;;;1.83;;
75386;SDS011;63966;47.914;22.266;2024-03-25T13:41:06;7.63;;;1.60;;
75386;SDS011;63966;47.914;22.266;2024-03-25T13:44:13;3.65;;;1.50;;
75386;SDS011;63966;47.914;22.266;2024-03-25T13:47:17;3.28;;;1.30;;
75386;SDS011;63966;47.914;22.266;2024-03-25T13:50:21;3.53;;;0.90;;
75386;SDS011;63966;47.914;22.266;2024-03-25T13:53:27;4.80;;;1.30;;
75386;SDS011;63966;47.914;22.266;2024-03-25T13:56:36;3.35;;;1.35;;
75386;SDS011;63966;47.914;22.266;2024-03-25T13:59:41;3.53;;;1.30;;
75386;SDS011;63966;47.914;22.266;2024-03-25T14:02:47;3.28;;;1.30;;
75386;SDS011;63966;47.914;22.266;2024-03-25T14:05:51;3.10;;;1.27;;
75386;SDS011;63966;47.914;22.266;2024-03-25T14:09:25;4.53;;;1.77;;
75386;SDS011;63966;47.914;22.266;2024-03-25T14:12:30;2.92;;;1.30;;
75386;SDS011;63966;47.914;22.266;2024-03-25T14:15:38;2.55;;;1.10;;
75386;SDS011;63966;47.914;22.266;2024-03-25T14:18:41;2.80;;;1.00;;
75386;SDS011;63966;47.914;22.266;2024-03-25T14:21:47;1.93;;;0.90;;
75386;SDS011;63966;47.914;22.266;2024-03-25T14:24:52;5.07;;;1.60;;
75386;SDS011;63966;47.914;22.266;2024-03-25T14:28:06;6.88;;;1.40;;
75386;SDS011;63966;47.914;22.266;2024-03-25T14:31:08;3.83;;;1.40;;
75386;SDS011;63966;47.914;22.266;2024-03-25T14:34:10;3.55;;;1.30;;
75386;SDS011;63966;47.914;22.266;2024-03-25T14:37:13;6.97;;;2.10;;
75386;SDS011;63966;47.914;22.266;2024-03-25T14:40:15;6.87;;;1.63;;
75386;SDS011;63966;47.914;22.266;2024-03-25T14:43:18;8.18;;;3.33;;
75386;SDS011;63966;47.914;22.266;2024-03-25T14:46:21;9.15;;;2.55;;
75386;SDS011;63966;47.914;22.266;2024-03-25T14:49:26;21.98;;;7.20;;
75386;SDS011;63966;47.914;22.266;2024-03-25T14:52:28;8.40;;;3.60;;
75386;SDS011;63966;47.914;22.266;2024-03-25T14:55:31;5.60;;;2.23;;
75386;SDS011;63966;47.914;22.266;2024-03-25T14:58:34;5.60;;;2.38;;
75386;SDS011;63966;47.914;22.266;2024-03-25T15:01:39;7.60;;;2.60;;
75386;SDS011;63966;47.914;22.266;2024-03-25T15:04:45;9.13;;;2.22;;
75386;SDS011;63966;47.914;22.266;2024-03-25T15:07:50;6.33;;;3.10;;
75386;SDS011;63966;47.914;22.266;2024-03-25T15:10:52;4.83;;;2.33;;
75386;SDS011;63966;47.914;22.266;2024-03-25T15:13:54;3.75;;;1.40;;
75386;SDS011;63966;47.914;22.266;2024-03-25T15:16:57;3.42;;;1.40;;
75386;SDS011;63966;47.914;22.266;2024-03-25T15:20:00;4.70;;;1.27;;
75386;SDS011;63966;47.914;22.266;2024-03-25T15:23:05;4.03;;;2.07;;
75386;SDS011;63966;47.914;22.266;2024-03-25T15:26:07;4.30;;;1.93;;
75386;SDS011;63966;47.914;22.266;2024-03-25T15:29:10;8.10;;;3.65;;
75386;SDS011;63966;47.914;22.266;2024-03-25T15:32:12;5.32;;;2.25;;
75386;SDS011;63966;47.914;22.266;2024-03-25T15:35:15;9.88;;;2.10;;
75386;SDS011;63966;47.914;22.266;2024-03-25T15:38:17;8.13;;;3.90;;
75386;SDS011;63966;47.914;22.266;2024-03-25T15:41:20;6.37;;;2.20;;
75386;SDS011;63966;47.914;22.266;2024-03-25T15:44:22;6.55;;;2.53;;
75386;SDS011;63966;47.914;22.266;2024-03-25T15:47:24;3.22;;;1.38;;
75386;SDS011;63966;47.914;22.266;2024-03-25T15:50:27;10.55;;;4.25;;
75386;SDS011;63966;47.914;22.266;2024-03-25T15:53:29;7.30;;;1.90;;
75386;SDS011;63966;47.914;22.266;2024-03-25T15:56:32;5.20;;;2.00;;
75386;SDS011;63966;47.914;22.266;2024-03-25T15:59:35;6.97;;;2.70;;
75386;SDS011;63966;47.914;22.266;2024-03-25T16:02:37;8.43;;;3.50;;
75386;SDS011;63966;47.914;22.266;2024-03-25T16:05:40;5.18;;;2.30;;
75386;SDS011;63966;47.914;22.266;2024-03-25T16:08:45;8.73;;;3.43;;
75386;SDS011;63966;47.914;22.266;2024-03-25T16:11:47;7.20;;;2.10;;
75386;SDS011;63966;47.914;22.266;2024-03-25T16:14:50;7.97;;;2.42;;
75386;SDS011;63966;47.914;22.266;2024-03-25T16:17:52;4.00;;;1.95;;
75386;SDS011;63966;47.914;22.266;2024-03-25T16:20:54;11.18;;;5.50;;
75386;SDS011;63966;47.914;22.266;2024-03-25T16:23:57;12.77;;;6.30;;
75386;SDS011;63966;47.914;22.266;2024-03-25T16:26:59;8.93;;;4.40;;
75386;SDS011;63966;47.914;22.266;2024-03-25T16:30:02;4.28;;;1.90;;
75386;SDS011;63966;47.914;22.266;2024-03-25T16:33:05;9.32;;;3.92;;
75386;SDS011;63966;47.914;22.266;2024-03-25T16:36:07;11.82;;;5.95;;
75386;SDS011;63966;47.914;22.266;2024-03-25T16:39:09;20.93;;;11.83;;
75386;SDS011;63966;47.914;22.266;2024-03-25T16:42:12;15.37;;;7.60;;
75386;SDS011;63966;47.914;22.266;2024-03-25T16:45:14;14.52;;;6.90;;
75386;SDS011;63966;47.914;22.266;2024-03-25T16:48:17;8.98;;;4.78;;
75386;SDS011;63966;47.914;22.266;2024-03-25T16:51:19;10.57;;;5.18;;
75386;SDS011;63966;47.914;22.266;2024-03-25T16:54:21;16.00;;;7.30;;
75386;SDS011;63966;47.914;22.266;2024-03-25T16:57:24;11.77;;;5.83;;
75386;SDS011;63966;47.914;22.266;2024-03-25T17:00:26;10.00;;;5.00;;
75386;SDS011;63966;47.914;22.266;2024-03-25T17:03:28;11.68;;;5.40;;
75386;SDS011;63966;47.914;22.266;2024-03-25T17:06:31;19.70;;;9.05;;
75386;SDS011;63966;47.914;22.266;2024-03-25T17:09:34;57.50;;;24.63;;
75386;SDS011;63966;47.914;22.266;2024-03-25T17:12:36;61.23;;;25.30;;
75386;SDS011;63966;47.914;22.266;2024-03-25T17:15:39;45.08;;;21.00;;
75386;SDS011;63966;47.914;22.266;2024-03-25T17:18:42;42.72;;;20.35;;
75386;SDS011;63966;47.914;22.266;2024-03-25T17:21:44;30.48;;;13.90;;
75386;SDS011;63966;47.914;22.266;2024-03-25T17:24:47;30.70;;;13.43;;
75386;SDS011;63966;47.914;22.266;2024-03-25T17:27:49;28.43;;;14.77;;
75386;SDS011;63966;47.914;22.266;2024-03-25T17:30:52;34.30;;;13.70;;
75386;SDS011;63966;47.914;22.266;2024-03-25T17:33:54;30.27;;;15.15;;
75386;SDS011;63966;47.914;22.266;2024-03-25T17:36:57;32.20;;;15.88;;
75386;SDS011;63966;47.914;22.266;2024-03-25T17:39:59;30.73;;;14.83;;
75386;SDS011;63966;47.914;22.266;2024-03-25T17:43:03;30.73;;;15.07;;
75386;SDS011;63966;47.914;22.266;2024-03-25T17:46:06;31.38;;;13.93;;
75386;SDS011;63966;47.914;22.266;2024-03-25T17:49:10;28.85;;;14.13;;
75386;SDS011;63966;47.914;22.266;2024-03-25T17:52:12;29.42;;;15.77;;
75386;SDS011;63966;47.914;22.266;2024-03-25T17:55:15;28.07;;;15.33;;
75386;SDS011;63966;47.914;22.266;2024-03-25T17:58:18;28.30;;;14.30;;
75386;SDS011;63966;47.914;22.266;2024-03-25T18:01:21;20.75;;;11.55;;
75386;SDS011;63966;47.914;22.266;2024-03-25T18:04:24;26.60;;;12.77;;
75386;SDS011;63966;47.914;22.266;2024-03-25T18:07:26;33.78;;;15.00;;
75386;SDS011;63966;47.914;22.266;2024-03-25T18:10:30;23.60;;;12.13;;
75386;SDS011;63966;47.914;22.266;2024-03-25T18:13:32;24.13;;;12.43;;